SBSPSBBH

Guest
Details From SBSP - Sao Paulo Congonhas
To SBBH - Pampulha
Flight Number -
Tags generated
Created
Modified
Stats Distance 273 nm / 505 km
Max Altitude 23,500 ft / 7,163 m
Waypoints 4
Social Downloads 1
Likes 0
Share VATSIM

Download

Looking for another format? Having issues loading an existing format? Contact us
Advertisement - Login to hide

Notes

Basic altitude profile: - Ascent Rate: 2500ft/min - Ascent Speed: 250kts - Cruise Altitude: 35000ft - Cruise Speed: 420kts - Descent Rate: 1500ft/min - Descent Speed: 250kts Options: - Use NATs: yes - Use PACOTS: yes - Use low airways: yes - Use high airways: yes

Route

SBSP TEXAS UW13 ARENA SBBH

ID Type Via Altitude Latitude Longitude Leg Dist Tot Dist Heading (true) Name
O SBSP APT - 0 ft / 0 m -23.62669˚ -46.65538˚ - 0 nm - Sao Paulo Congonhas
TEXAS FIX - 13,800 ft / 4,206 m -23.09350˚ -46.17183˚ 41 nm 41 nm 40° / 40° -
ARENA FIX UW13 (AWY-HI) 23,500 ft / 7,163 m -21.02667˚ -44.78250˚ 146 nm 187 nm 32° / 32° -
O SBBH APT - 0 ft / 0 m -19.85118˚ -43.95063˚ 84 nm 272 nm 34° / 33° Pampulha

Altitude Profile

Advertisement - Login to hide

Weather


0- 5 10 15 20 25 30 35+ Temperature / ° C

Clouds and Precipitation
Forecast for 2017-12-14 12:00 UTC. Updated an hour ago

Ground ~20,000 ft ~40,000 ft Winds

SBSP

Details ICAO SBSP (CGH)
Name Sao Paulo Congonhas
Region Brazil
Timezone America/Sao_Paulo (UTC-2.0)
Stats Elevation 2,631 ft / 802 m (AMSL)
Location -23.626693° -46.655377°
Runways 2
Magnetic Variation 21.295° W

METAR

SBSP 141000Z 08003KT 9999 SCT009 BKN011 19/16 Q1021

Decode

TAF

TAF SBSP 140117Z 1406/1506 09005KT 9999 OVC009TN16/1409Z TX27/1417Z PROB30 1406/1411 6000 OVC006 BECMG 1411/1414 10005KT SCT015 BECMG 1414/1416 17008KT PROB30 1416/1421 BKN009 BECMG 1421/1423 10004KT CAVOK BECMG 1500/1502 08005KT RMK PHM

Decode

Departure Runways

ID Width Length Bearing (true) Bearing (mag) Surface Threshold Offset Overrun Length
17L 147 ft / 45 m 4,726 ft / 1,441 m 147.28° 168.57° Asphalt 0 ft / 0 m 220 ft / 67 m
17R 147 ft / 45 m 6,406 ft / 1,953 m 147.39° 168.68° Asphalt 413 ft / 126 m 0 ft / 0 m
35L 147 ft / 45 m 6,406 ft / 1,953 m 327.38° 348.67° Asphalt 200 ft / 61 m 0 ft / 0 m
35R 147 ft / 45 m 4,726 ft / 1,441 m 327.28° 348.57° Asphalt 0 ft / 0 m 0 ft / 0 m

SBBH

Details ICAO SBBH (PLU)
Name Pampulha
Region Brazil
Timezone America/Sao_Paulo (UTC-2.0)
Stats Elevation 2,589 ft / 789 m (AMSL)
Location -19.851179° -43.950626°
Runways 1
Magnetic Variation 22.798° W

METAR

SBBH 141000Z 09005KT 9999 BKN017 BKN070 20/17 Q1020

Decode

TAF

Not found

Destination Runways

ID Width Length Bearing (true) Bearing (mag) Surface Threshold Offset Overrun Length
13 148 ft / 45 m 8,214 ft / 2,504 m 110.63° 133.43° Asphalt 0 ft / 0 m 200 ft / 61 m
31 148 ft / 45 m 8,214 ft / 2,504 m 290.62° 313.42° Asphalt 0 ft / 0 m 200 ft / 61 m

Popular Alternatives